sensor_id;sensor_type;location;lat;lon;timestamp;pressure;altitude;pressure_sealevel;temperature
28305;BMP280;15569;42.652;23.040;2023-02-19T00:03:58;93310.56;;;8.78
28305;BMP280;15569;42.652;23.040;2023-02-19T00:06:25;93329.09;;;8.60
28305;BMP280;15569;42.652;23.040;2023-02-19T00:08:51;93306.59;;;8.58
28305;BMP280;15569;42.652;23.040;2023-02-19T00:11:19;93313.00;;;8.41
28305;BMP280;15569;42.652;23.040;2023-02-19T00:13:47;93306.53;;;8.25
28305;BMP280;15569;42.652;23.040;2023-02-19T00:16:31;93311.06;;;8.32
28305;BMP280;15569;42.652;23.040;2023-02-19T00:18:57;93307.41;;;8.18
28305;BMP280;15569;42.652;23.040;2023-02-19T00:21:24;93304.22;;;8.31
28305;BMP280;15569;42.652;23.040;2023-02-19T00:23:51;93296.41;;;8.26
28305;BMP280;15569;42.652;23.040;2023-02-19T00:26:17;93292.22;;;8.34
28305;BMP280;15569;42.652;23.040;2023-02-19T00:28:43;93283.97;;;8.32
28305;BMP280;15569;42.652;23.040;2023-02-19T00:31:15;93286.69;;;8.32
28305;BMP280;15569;42.652;23.040;2023-02-19T00:33:41;93287.72;;;8.18
28305;BMP280;15569;42.652;23.040;2023-02-19T00:36:06;93279.53;;;8.06
28305;BMP280;15569;42.652;23.040;2023-02-19T00:38:35;93282.06;;;8.14
28305;BMP280;15569;42.652;23.040;2023-02-19T00:41:01;93277.03;;;7.98
28305;BMP280;15569;42.652;23.040;2023-02-19T00:43:51;93281.84;;;8.00
28305;BMP280;15569;42.652;23.040;2023-02-19T00:48:47;93271.56;;;8.08
28305;BMP280;15569;42.652;23.040;2023-02-19T00:51:12;93274.19;;;7.96
28305;BMP280;15569;42.652;23.040;2023-02-19T00:53:38;93282.44;;;7.98
28305;BMP280;15569;42.652;23.040;2023-02-19T00:56:04;93276.16;;;7.96
28305;BMP280;15569;42.652;23.040;2023-02-19T00:58:29;93279.47;;;7.94
28305;BMP280;15569;42.652;23.040;2023-02-19T01:00:55;93279.47;;;7.94
28305;BMP280;15569;42.652;23.040;2023-02-19T01:03:21;93268.47;;;8.02
28305;BMP280;15569;42.652;23.040;2023-02-19T01:05:50;93278.25;;;8.07
28305;BMP280;15569;42.652;23.040;2023-02-19T01:08:16;93260.91;;;8.00
28305;BMP280;15569;42.652;23.040;2023-02-19T01:10:42;93269.22;;;7.53
28305;BMP280;15569;42.652;23.040;2023-02-19T01:13:08;93237.44;;;7.63
28305;BMP280;15569;42.652;23.040;2023-02-19T01:15:33;93264.41;;;7.82
28305;BMP280;15569;42.652;23.040;2023-02-19T01:17:59;93246.38;;;7.75
28305;BMP280;15569;42.652;23.040;2023-02-19T01:20:24;93254.25;;;7.92
28305;BMP280;15569;42.652;23.040;2023-02-19T01:22:50;93255.88;;;8.06
28305;BMP280;15569;42.652;23.040;2023-02-19T01:25:16;93262.41;;;8.13
28305;BMP280;15569;42.652;23.040;2023-02-19T01:27:41;93267.94;;;8.15
28305;BMP280;15569;42.652;23.040;2023-02-19T01:30:07;93271.97;;;8.14
28305;BMP280;15569;42.652;23.040;2023-02-19T01:32:33;93275.56;;;8.28
28305;BMP280;15569;42.652;23.040;2023-02-19T01:34:58;93277.25;;;8.33
28305;BMP280;15569;42.652;23.040;2023-02-19T01:37:23;93283.44;;;8.24
28305;BMP280;15569;42.652;23.040;2023-02-19T01:39:49;93283.81;;;8.30
28305;BMP280;15569;42.652;23.040;2023-02-19T01:42:14;93290.00;;;8.21
28305;BMP280;15569;42.652;23.040;2023-02-19T01:47:10;93315.09;;;8.22
28305;BMP280;15569;42.652;23.040;2023-02-19T01:49:55;93307.28;;;8.37
28305;BMP280;15569;42.652;23.040;2023-02-19T01:52:25;93319.09;;;8.42
28305;BMP280;15569;42.652;23.040;2023-02-19T01:54:53;93313.59;;;8.30
28305;BMP280;15569;42.652;23.040;2023-02-19T01:57:22;93309.34;;;8.27
28305;BMP280;15569;42.652;23.040;2023-02-19T01:59:52;93309.34;;;8.27
28305;BMP280;15569;42.652;23.040;2023-02-19T02:02:20;93313.06;;;8.01
28305;BMP280;15569;42.652;23.040;2023-02-19T02:04:45;93294.81;;;8.01
28305;BMP280;15569;42.652;23.040;2023-02-19T02:07:12;93316.06;;;8.05
28305;BMP280;15569;42.652;23.040;2023-02-19T02:09:57;93289.66;;;8.05
28305;BMP280;15569;42.652;23.040;2023-02-19T02:12:41;93294.63;;;8.09
28305;BMP280;15569;42.652;23.040;2023-02-19T02:15:07;93294.78;;;8.11
28305;BMP280;15569;42.652;23.040;2023-02-19T02:18:05;93304.53;;;7.95
28305;BMP280;15569;42.652;23.040;2023-02-19T02:31:25;93301.19;;;7.75
28305;BMP280;15569;42.652;23.040;2023-02-19T02:34:06;93305.94;;;7.56
28305;BMP280;15569;42.652;23.040;2023-02-19T02:36:40;93296.47;;;7.45
28305;BMP280;15569;42.652;23.040;2023-02-19T02:39:10;93285.22;;;7.29
28305;BMP280;15569;42.652;23.040;2023-02-19T02:41:42;93305.19;;;7.24
28305;BMP280;15569;42.652;23.040;2023-02-19T02:44:08;93302.06;;;6.99
28305;BMP280;15569;42.652;23.040;2023-02-19T02:46:34;93306.34;;;7.12
28305;BMP280;15569;42.652;23.040;2023-02-19T02:49:04;93307.78;;;7.13
28305;BMP280;15569;42.652;23.040;2023-02-19T02:51:38;93311.44;;;7.17
28305;BMP280;15569;42.652;23.040;2023-02-19T02:54:17;93300.91;;;6.93
28305;BMP280;15569;42.652;23.040;2023-02-19T02:57:02;93306.63;;;6.87
28305;BMP280;15569;42.652;23.040;2023-02-19T02:59:32;93316.59;;;6.94
28305;BMP280;15569;42.652;23.040;2023-02-19T03:08:14;93311.19;;;6.75
28305;BMP280;15569;42.652;23.040;2023-02-19T03:10:50;93308.47;;;6.56
28305;BMP280;15569;42.652;23.040;2023-02-19T03:13:22;93310.72;;;6.69
28305;BMP280;15569;42.652;23.040;2023-02-19T03:16:16;93304.75;;;6.51
28305;BMP280;15569;42.652;23.040;2023-02-19T03:19:03;93308.34;;;6.73
28305;BMP280;15569;42.652;23.040;2023-02-19T03:22:46;93313.03;;;6.72
28305;BMP280;15569;42.652;23.040;2023-02-19T03:24:58;93308.75;;;6.69
28305;BMP280;15569;42.652;23.040;2023-02-19T03:27:43;93324.25;;;6.69
28305;BMP280;15569;42.652;23.040;2023-02-19T03:30:22;93329.09;;;6.61
28305;BMP280;15569;42.652;23.040;2023-02-19T03:32:53;93323.53;;;6.49
28305;BMP280;15569;42.652;23.040;2023-02-19T03:35:30;93340.13;;;6.46
28305;BMP280;15569;42.652;23.040;2023-02-19T03:41:17;93333.31;;;6.35
28305;BMP280;15569;42.652;23.040;2023-02-19T03:43:58;93346.69;;;6.06
28305;BMP280;15569;42.652;23.040;2023-02-19T03:46:33;93352.25;;;6.09
28305;BMP280;15569;42.652;23.040;2023-02-19T03:49:10;93348.19;;;6.27
28305;BMP280;15569;42.652;23.040;2023-02-19T03:51:44;93336.00;;;6.35
28305;BMP280;15569;42.652;23.040;2023-02-19T03:56:48;93350.69;;;6.05
28305;BMP280;15569;42.652;23.040;2023-02-19T03:59:54;93354.53;;;6.12
28305;BMP280;15569;42.652;23.040;2023-02-19T04:02:32;93347.97;;;6.05
28305;BMP280;15569;42.652;23.040;2023-02-19T04:05:06;93362.63;;;6.12
28305;BMP280;15569;42.652;23.040;2023-02-19T04:07:38;93355.13;;;6.20
28305;BMP280;15569;42.652;23.040;2023-02-19T04:10:06;93361.06;;;6.09
28305;BMP280;15569;42.652;23.040;2023-02-19T04:12:35;93364.22;;;5.88
28305;BMP280;15569;42.652;23.040;2023-02-19T04:15:06;93356.47;;;6.02
28305;BMP280;15569;42.652;23.040;2023-02-19T04:17:43;93364.53;;;5.92
28305;BMP280;15569;42.652;23.040;2023-02-19T04:20:10;93374.34;;;5.97
28305;BMP280;15569;42.652;23.040;2023-02-19T04:22:39;93368.56;;;5.74
28305;BMP280;15569;42.652;23.040;2023-02-19T04:25:05;93362.44;;;5.74
28305;BMP280;15569;42.652;23.040;2023-02-19T04:27:31;93369.75;;;5.81
28305;BMP280;15569;42.652;23.040;2023-02-19T04:29:59;93367.56;;;5.70
28305;BMP280;15569;42.652;23.040;2023-02-19T04:32:25;93368.56;;;5.74
28305;BMP280;15569;42.652;23.040;2023-02-19T04:34:50;93376.66;;;5.74
28305;BMP280;15569;42.652;23.040;2023-02-19T04:37:15;93378.44;;;5.89
28305;BMP280;15569;42.652;23.040;2023-02-19T04:39:41;93376.78;;;5.76
28305;BMP280;15569;42.652;23.040;2023-02-19T04:42:06;93370.59;;;5.83
28305;BMP280;15569;42.652;23.040;2023-02-19T04:44:32;93369.38;;;5.67
28305;BMP280;15569;42.652;23.040;2023-02-19T04:46:57;93383.16;;;5.71
28305;BMP280;15569;42.652;23.040;2023-02-19T04:49:23;93383.09;;;5.88
28305;BMP280;15569;42.652;23.040;2023-02-19T04:51:48;93388.34;;;5.86
28305;BMP280;15569;42.652;23.040;2023-02-19T04:54:14;93380.16;;;5.94
28305;BMP280;15569;42.652;23.040;2023-02-19T04:56:39;93368.16;;;5.78
28305;BMP280;15569;42.652;23.040;2023-02-19T04:59:04;93385.41;;;5.92
28305;BMP280;15569;42.652;23.040;2023-02-19T05:01:30;93379.00;;;5.87
28305;BMP280;15569;42.652;23.040;2023-02-19T05:03:55;93386.06;;;5.83
28305;BMP280;15569;42.652;23.040;2023-02-19T05:06:21;93380.34;;;5.69
28305;BMP280;15569;42.652;23.040;2023-02-19T05:08:46;93381.78;;;5.80
28305;BMP280;15569;42.652;23.040;2023-02-19T05:11:11;93384.03;;;5.74
28305;BMP280;15569;42.652;23.040;2023-02-19T05:13:38;93374.09;;;5.76
28305;BMP280;15569;42.652;23.040;2023-02-19T05:18:31;93378.56;;;5.81
28305;BMP280;15569;42.652;23.040;2023-02-19T05:20:57;93387.28;;;5.72
28305;BMP280;15569;42.652;23.040;2023-02-19T05:23:24;93385.22;;;5.80
28305;BMP280;15569;42.652;23.040;2023-02-19T05:25:49;93390.75;;;5.82
28305;BMP280;15569;42.652;23.040;2023-02-19T05:28:15;93389.03;;;5.77
28305;BMP280;15569;42.652;23.040;2023-02-19T05:30:51;93395.00;;;5.85
28305;BMP280;15569;42.652;23.040;2023-02-19T05:33:18;93391.97;;;5.72
28305;BMP280;15569;42.652;23.040;2023-02-19T05:35:49;93404.19;;;5.73
28305;BMP280;15569;42.652;23.040;2023-02-19T05:38:16;93391.47;;;5.83
28305;BMP280;15569;42.652;23.040;2023-02-19T05:40:43;93393.81;;;5.69
28305;BMP280;15569;42.652;23.040;2023-02-19T05:43:09;93396.78;;;5.73
28305;BMP280;15569;42.652;23.040;2023-02-19T05:45:35;93398.63;;;5.71
28305;BMP280;15569;42.652;23.040;2023-02-19T05:48:03;93403.47;;;5.55
28305;BMP280;15569;42.652;23.040;2023-02-19T05:50:30;93407.63;;;5.56
28305;BMP280;15569;42.652;23.040;2023-02-19T05:52:59;93412.94;;;5.90
28305;BMP280;15569;42.652;23.040;2023-02-19T05:55:25;93417.72;;;5.82
28305;BMP280;15569;42.652;23.040;2023-02-19T05:57:51;93419.09;;;6.00
28305;BMP280;15569;42.652;23.040;2023-02-19T06:00:18;93406.03;;;5.97
28305;BMP280;15569;42.652;23.040;2023-02-19T06:02:44;93414.94;;;6.17
28305;BMP280;15569;42.652;23.040;2023-02-19T06:05:10;93415.91;;;6.12
28305;BMP280;15569;42.652;23.040;2023-02-19T06:07:35;93427.31;;;6.20
28305;BMP280;15569;42.652;23.040;2023-02-19T06:10:04;93430.47;;;6.26
28305;BMP280;15569;42.652;23.040;2023-02-19T06:12:30;93422.78;;;6.22
28305;BMP280;15569;42.652;23.040;2023-02-19T06:14:55;93423.66;;;6.34
28305;BMP280;15569;42.652;23.040;2023-02-19T06:17:20;93432.16;;;6.31
28305;BMP280;15569;42.652;23.040;2023-02-19T06:19:46;93437.75;;;6.42
28305;BMP280;15569;42.652;23.040;2023-02-19T06:22:13;93442.91;;;6.48
28305;BMP280;15569;42.652;23.040;2023-02-19T06:24:39;93439.59;;;6.76
28305;BMP280;15569;42.652;23.040;2023-02-19T06:27:05;93438.50;;;6.89
28305;BMP280;15569;42.652;23.040;2023-02-19T06:29:31;93426.88;;;6.50
28305;BMP280;15569;42.652;23.040;2023-02-19T06:31:57;93437.56;;;6.67
28305;BMP280;15569;42.652;23.040;2023-02-19T06:34:23;93422.81;;;6.78
28305;BMP280;15569;42.652;23.040;2023-02-19T06:36:49;93435.63;;;6.77
28305;BMP280;15569;42.652;23.040;2023-02-19T06:39:14;93434.22;;;6.86
28305;BMP280;15569;42.652;23.040;2023-02-19T06:41:40;93428.97;;;7.07
28305;BMP280;15569;42.652;23.040;2023-02-19T06:44:05;93436.38;;;7.25
28305;BMP280;15569;42.652;23.040;2023-02-19T06:46:30;93441.94;;;7.27
28305;BMP280;15569;42.652;23.040;2023-02-19T06:48:56;93442.94;;;7.41
28305;BMP280;15569;42.652;23.040;2023-02-19T06:51:21;93441.22;;;7.56
28305;BMP280;15569;42.652;23.040;2023-02-19T06:53:48;93440.06;;;7.59
28305;BMP280;15569;42.652;23.040;2023-02-19T06:56:34;93442.66;;;7.57
28305;BMP280;15569;42.652;23.040;2023-02-19T06:59:01;93444.03;;;7.77
28305;BMP280;15569;42.652;23.040;2023-02-19T07:01:29;93450.81;;;7.97
28305;BMP280;15569;42.652;23.040;2023-02-19T07:03:54;93435.72;;;8.13
28305;BMP280;15569;42.652;23.040;2023-02-19T07:06:21;93440.66;;;8.17
28305;BMP280;15569;42.652;23.040;2023-02-19T07:08:48;93441.97;;;8.06
28305;BMP280;15569;42.652;23.040;2023-02-19T07:11:14;93419.56;;;8.25
28305;BMP280;15569;42.652;23.040;2023-02-19T07:13:39;93424.91;;;8.44
28305;BMP280;15569;42.652;23.040;2023-02-19T07:16:07;93439.94;;;8.56
28305;BMP280;15569;42.652;23.040;2023-02-19T07:18:33;93437.44;;;8.39
28305;BMP280;15569;42.652;23.040;2023-02-19T07:21:03;93424.47;;;8.68
28305;BMP280;15569;42.652;23.040;2023-02-19T07:23:29;93438.69;;;9.00
28305;BMP280;15569;42.652;23.040;2023-02-19T07:25:54;93432.38;;;9.07
28305;BMP280;15569;42.652;23.040;2023-02-19T07:28:19;93423.09;;;9.10
28305;BMP280;15569;42.652;23.040;2023-02-19T07:30:45;93426.41;;;9.41
28305;BMP280;15569;42.652;23.040;2023-02-19T07:33:10;93420.91;;;9.62
28305;BMP280;15569;42.652;23.040;2023-02-19T07:35:35;93419.06;;;8.90
28305;BMP280;15569;42.652;23.040;2023-02-19T07:38:01;93432.78;;;8.92
28305;BMP280;15569;42.652;23.040;2023-02-19T07:40:26;93417.34;;;8.94
28305;BMP280;15569;42.652;23.040;2023-02-19T07:42:51;93432.69;;;9.22
28305;BMP280;15569;42.652;23.040;2023-02-19T07:45:17;93439.06;;;9.48
28305;BMP280;15569;42.652;23.040;2023-02-19T07:47:42;93429.78;;;9.30
28305;BMP280;15569;42.652;23.040;2023-02-19T07:50:08;93436.84;;;9.56
28305;BMP280;15569;42.652;23.040;2023-02-19T07:52:33;93439.91;;;9.62
28305;BMP280;15569;42.652;23.040;2023-02-19T07:54:59;93436.88;;;9.68
28305;BMP280;15569;42.652;23.040;2023-02-19T07:57:26;93428.03;;;9.79
28305;BMP280;15569;42.652;23.040;2023-02-19T07:59:52;93435.41;;;9.99
28305;BMP280;15569;42.652;23.040;2023-02-19T08:02:18;93423.16;;;10.21
28305;BMP280;15569;42.652;23.040;2023-02-19T08:05:04;93420.19;;;10.29
28305;BMP280;15569;42.652;23.040;2023-02-19T08:07:34;93415.94;;;10.03
28305;BMP280;15569;42.652;23.040;2023-02-19T08:10:00;93422.66;;;10.37
28305;BMP280;15569;42.652;23.040;2023-02-19T08:12:44;93423.03;;;10.66
28305;BMP280;15569;42.652;23.040;2023-02-19T08:15:28;93432.78;;;10.94
28305;BMP280;15569;42.652;23.040;2023-02-19T08:17:53;93435.72;;;10.98
28305;BMP280;15569;42.652;23.040;2023-02-19T08:20:19;93432.44;;;10.88
28305;BMP280;15569;42.652;23.040;2023-02-19T08:22:44;93432.88;;;11.07
28305;BMP280;15569;42.652;23.040;2023-02-19T08:25:09;93430.00;;;11.17
28305;BMP280;15569;42.652;23.040;2023-02-19T08:27:35;93418.81;;;11.36
28305;BMP280;15569;42.652;23.040;2023-02-19T08:30:00;93421.50;;;11.61
28305;BMP280;15569;42.652;23.040;2023-02-19T08:32:25;93419.13;;;11.67
28305;BMP280;15569;42.652;23.040;2023-02-19T08:34:51;93420.97;;;11.76
28305;BMP280;15569;42.652;23.040;2023-02-19T08:37:16;93424.56;;;12.06
28305;BMP280;15569;42.652;23.040;2023-02-19T08:39:41;93420.84;;;12.13
28305;BMP280;15569;42.652;23.040;2023-02-19T08:42:07;93417.22;;;12.09
28305;BMP280;15569;42.652;23.040;2023-02-19T08:44:32;93417.50;;;12.15
28305;BMP280;15569;42.652;23.040;2023-02-19T08:46:58;93408.06;;;12.43
28305;BMP280;15569;42.652;23.040;2023-02-19T08:49:26;93402.31;;;12.37
28305;BMP280;15569;42.652;23.040;2023-02-19T08:51:52;93407.84;;;12.52
28305;BMP280;15569;42.652;23.040;2023-02-19T08:54:17;93390.16;;;12.67
28305;BMP280;15569;42.652;23.040;2023-02-19T08:56:43;93392.47;;;12.45
28305;BMP280;15569;42.652;23.040;2023-02-19T08:59:08;93395.59;;;12.53
28305;BMP280;15569;42.652;23.040;2023-02-19T09:01:33;93384.00;;;12.66
28305;BMP280;15569;42.652;23.040;2023-02-19T09:03:59;93375.94;;;12.55
28305;BMP280;15569;42.652;23.040;2023-02-19T09:06:24;93383.38;;;12.68
28305;BMP280;15569;42.652;23.040;2023-02-19T09:08:50;93372.22;;;12.91
28305;BMP280;15569;42.652;23.040;2023-02-19T09:11:15;93370.72;;;12.88
28305;BMP280;15569;42.652;23.040;2023-02-19T09:13:42;93376.94;;;13.04
28305;BMP280;15569;42.652;23.040;2023-02-19T09:16:08;93366.28;;;13.24
28305;BMP280;15569;42.652;23.040;2023-02-19T09:18:33;93366.09;;;13.51
28305;BMP280;15569;42.652;23.040;2023-02-19T09:21:01;93371.06;;;13.55
28305;BMP280;15569;42.652;23.040;2023-02-19T09:23:26;93364.72;;;13.97
28305;BMP280;15569;42.652;23.040;2023-02-19T09:25:59;93354.38;;;14.26
28305;BMP280;15569;42.652;23.040;2023-02-19T09:28:26;93346.72;;;14.56
28305;BMP280;15569;42.652;23.040;2023-02-19T09:30:51;93355.81;;;14.78
28305;BMP280;15569;42.652;23.040;2023-02-19T09:33:17;93355.16;;;14.62
28305;BMP280;15569;42.652;23.040;2023-02-19T09:35:42;93352.25;;;14.58
28305;BMP280;15569;42.652;23.040;2023-02-19T09:38:08;93348.44;;;14.32
28305;BMP280;15569;42.652;23.040;2023-02-19T09:40:36;93338.03;;;14.62
28305;BMP280;15569;42.652;23.040;2023-02-19T09:43:05;93334.78;;;14.32
28305;BMP280;15569;42.652;23.040;2023-02-19T09:45:33;93334.88;;;14.34
28305;BMP280;15569;42.652;23.040;2023-02-19T09:47:59;93331.72;;;14.57
28305;BMP280;15569;42.652;23.040;2023-02-19T09:50:35;93326.53;;;14.65
28305;BMP280;15569;42.652;23.040;2023-02-19T09:53:05;93322.72;;;15.07
28305;BMP280;15569;42.652;23.040;2023-02-19T09:55:35;93311.47;;;14.99
28305;BMP280;15569;42.652;23.040;2023-02-19T10:00:40;93310.84;;;14.83
28305;BMP280;15569;42.652;23.040;2023-02-19T10:05:32;93300.91;;;15.09
28305;BMP280;15569;42.652;23.040;2023-02-19T10:07:58;93295.66;;;15.53
28305;BMP280;15569;42.652;23.040;2023-02-19T10:10:29;93298.22;;;15.29
28305;BMP280;15569;42.652;23.040;2023-02-19T10:13:09;93294.88;;;15.13
28305;BMP280;15569;42.652;23.040;2023-02-19T10:15:45;93289.06;;;15.22
28305;BMP280;15569;42.652;23.040;2023-02-19T10:18:11;93289.41;;;15.13
28305;BMP280;15569;42.652;23.040;2023-02-19T10:20:36;93280.97;;;15.44
28305;BMP280;15569;42.652;23.040;2023-02-19T10:23:06;93279.50;;;15.80
28305;BMP280;15569;42.652;23.040;2023-02-19T10:25:46;93265.28;;;15.66
28305;BMP280;15569;42.652;23.040;2023-02-19T10:28:16;93267.13;;;15.79
28305;BMP280;15569;42.652;23.040;2023-02-19T10:30:42;93248.31;;;15.70
28305;BMP280;15569;42.652;23.040;2023-02-19T10:33:11;93242.31;;;15.36
28305;BMP280;15569;42.652;23.040;2023-02-19T10:36:09;93249.22;;;15.76
28305;BMP280;15569;42.652;23.040;2023-02-19T10:38:45;93241.34;;;15.67
28305;BMP280;15569;42.652;23.040;2023-02-19T10:41:18;93226.53;;;15.74
28305;BMP280;15569;42.652;23.040;2023-02-19T10:44:21;93217.19;;;16.02
28305;BMP280;15569;42.652;23.040;2023-02-19T10:46:50;93230.41;;;15.47
28305;BMP280;15569;42.652;23.040;2023-02-19T10:49:26;93220.81;;;15.68
28305;BMP280;15569;42.652;23.040;2023-02-19T10:51:55;93200.41;;;15.92
28305;BMP280;15569;42.652;23.040;2023-02-19T10:54:28;93212.72;;;15.72
28305;BMP280;15569;42.652;23.040;2023-02-19T10:59:48;93199.09;;;15.74
28305;BMP280;15569;42.652;23.040;2023-02-19T11:02:18;93192.69;;;15.87
28305;BMP280;15569;42.652;23.040;2023-02-19T11:07:28;93177.19;;;16.17
28305;BMP280;15569;42.652;23.040;2023-02-19T11:09:54;93170.81;;;16.56
28305;BMP280;15569;42.652;23.040;2023-02-19T11:12:38;93164.28;;;16.90
28305;BMP280;15569;42.652;23.040;2023-02-19T11:15:20;93155.63;;;17.00
28305;BMP280;15569;42.652;23.040;2023-02-19T11:20:22;93153.84;;;16.85
28305;BMP280;15569;42.652;23.040;2023-02-19T11:22:48;93146.34;;;16.87
28305;BMP280;15569;42.652;23.040;2023-02-19T11:30:40;93142.25;;;16.88
28305;BMP280;15569;42.652;23.040;2023-02-19T11:33:19;93136.25;;;16.94
28305;BMP280;15569;42.652;23.040;2023-02-19T11:35:49;93136.91;;;18.01
28305;BMP280;15569;42.652;23.040;2023-02-19T11:38:17;93122.09;;;17.57
28305;BMP280;15569;42.652;23.040;2023-02-19T11:41:19;93108.69;;;18.00
28305;BMP280;15569;42.652;23.040;2023-02-19T11:46:42;93117.59;;;18.29
28305;BMP280;15569;42.652;23.040;2023-02-19T11:49:27;93111.16;;;18.18
28305;BMP280;15569;42.652;23.040;2023-02-19T11:54:54;93100.59;;;18.72
28305;BMP280;15569;42.652;23.040;2023-02-19T11:57:39;93107.59;;;18.43
28305;BMP280;15569;42.652;23.040;2023-02-19T12:00:23;93102.75;;;19.51
28305;BMP280;15569;42.652;23.040;2023-02-19T12:11:20;93090.81;;;19.00
28305;BMP280;15569;42.652;23.040;2023-02-19T12:14:14;93080.59;;;19.90
28305;BMP280;15569;42.652;23.040;2023-02-19T12:19:28;93066.75;;;19.86
28305;BMP280;15569;42.652;23.040;2023-02-19T12:36:44;93028.66;;;21.78
28305;BMP280;15569;42.652;23.040;2023-02-19T12:42:39;93020.00;;;22.44
28305;BMP280;15569;42.652;23.040;2023-02-19T12:45:18;93020.16;;;23.02
28305;BMP280;15569;42.652;23.040;2023-02-19T12:47:56;93009.41;;;24.47
28305;BMP280;15569;42.652;23.040;2023-02-19T12:50:26;93002.69;;;25.17
28305;BMP280;15569;42.652;23.040;2023-02-19T12:53:07;92996.88;;;25.45
28305;BMP280;15569;42.652;23.040;2023-02-19T12:55:42;92988.97;;;24.87
28305;BMP280;15569;42.652;23.040;2023-02-19T12:58:13;92991.31;;;25.41
28305;BMP280;15569;42.652;23.040;2023-02-19T13:00:44;92985.69;;;24.60
28305;BMP280;15569;42.652;23.040;2023-02-19T13:08:40;92975.06;;;26.75
28305;BMP280;15569;42.652;23.040;2023-02-19T13:11:13;92961.47;;;24.51
28305;BMP280;15569;42.652;23.040;2023-02-19T13:13:45;92983.16;;;25.21
28305;BMP280;15569;42.652;23.040;2023-02-19T13:16:17;92974.22;;;23.95
28305;BMP280;15569;42.652;23.040;2023-02-19T13:21:17;92956.41;;;25.56
28305;BMP280;15569;42.652;23.040;2023-02-19T13:24:06;92948.03;;;25.56
28305;BMP280;15569;42.652;23.040;2023-02-19T13:29:23;92946.25;;;24.36
28305;BMP280;15569;42.652;23.040;2023-02-19T13:37:09;92943.28;;;27.76
28305;BMP280;15569;42.652;23.040;2023-02-19T13:39:35;92931.56;;;28.02
28305;BMP280;15569;42.652;23.040;2023-02-19T13:42:01;92940.16;;;28.57
28305;BMP280;15569;42.652;23.040;2023-02-19T13:44:29;92928.25;;;27.22
28305;BMP280;15569;42.652;23.040;2023-02-19T13:46:55;92930.25;;;27.64
28305;BMP280;15569;42.652;23.040;2023-02-19T13:51:59;92929.19;;;26.19
28305;BMP280;15569;42.652;23.040;2023-02-19T13:54:30;92921.38;;;25.75
28305;BMP280;15569;42.652;23.040;2023-02-19T13:59:49;92906.09;;;27.12
28305;BMP280;15569;42.652;23.040;2023-02-19T14:04:56;92904.91;;;26.58
28305;BMP280;15569;42.652;23.040;2023-02-19T14:09:53;92891.94;;;26.83
28305;BMP280;15569;42.652;23.040;2023-02-19T14:12:20;92895.28;;;27.32
28305;BMP280;15569;42.652;23.040;2023-02-19T14:14:50;92895.38;;;26.86
28305;BMP280;15569;42.652;23.040;2023-02-19T14:19:58;92888.88;;;27.73
28305;BMP280;15569;42.652;23.040;2023-02-19T14:31:01;92862.09;;;22.58
28305;BMP280;15569;42.652;23.040;2023-02-19T14:33:37;92866.97;;;22.81
28305;BMP280;15569;42.652;23.040;2023-02-19T14:36:14;92859.66;;;21.28
28305;BMP280;15569;42.652;23.040;2023-02-19T14:38:49;92873.09;;;20.74
28305;BMP280;15569;42.652;23.040;2023-02-19T14:41:16;92860.00;;;20.76
28305;BMP280;15569;42.652;23.040;2023-02-19T14:43:43;92870.41;;;20.08
28305;BMP280;15569;42.652;23.040;2023-02-19T14:46:36;92850.56;;;19.60
28305;BMP280;15569;42.652;23.040;2023-02-19T14:49:14;92865.56;;;19.47
28305;BMP280;15569;42.652;23.040;2023-02-19T14:51:43;92851.28;;;19.10
28305;BMP280;15569;42.652;23.040;2023-02-19T14:54:19;92847.75;;;19.04
28305;BMP280;15569;42.652;23.040;2023-02-19T14:56:47;92860.22;;;19.09
28305;BMP280;15569;42.652;23.040;2023-02-19T15:01:43;92851.94;;;19.07
28305;BMP280;15569;42.652;23.040;2023-02-19T15:04:21;92838.41;;;19.27
28305;BMP280;15569;42.652;23.040;2023-02-19T15:06:46;92849.50;;;19.87
28305;BMP280;15569;42.652;23.040;2023-02-19T15:09:12;92863.78;;;18.72
28305;BMP280;15569;42.652;23.040;2023-02-19T15:11:40;92868.94;;;18.12
28305;BMP280;15569;42.652;23.040;2023-02-19T15:14:07;92881.75;;;17.66
28305;BMP280;15569;42.652;23.040;2023-02-19T15:16:40;92858.44;;;17.67
28305;BMP280;15569;42.652;23.040;2023-02-19T15:19:06;92864.34;;;17.87
28305;BMP280;15569;42.652;23.040;2023-02-19T15:21:34;92865.13;;;17.93
28305;BMP280;15569;42.652;23.040;2023-02-19T15:24:03;92857.13;;;17.70
28305;BMP280;15569;42.652;23.040;2023-02-19T15:26:38;92859.28;;;17.75
28305;BMP280;15569;42.652;23.040;2023-02-19T15:29:13;92881.91;;;17.72
28305;BMP280;15569;42.652;23.040;2023-02-19T15:32:12;92871.25;;;17.56
28305;BMP280;15569;42.652;23.040;2023-02-19T15:34:39;92887.03;;;17.54
28305;BMP280;15569;42.652;23.040;2023-02-19T15:37:08;92880.88;;;17.55
28305;BMP280;15569;42.652;23.040;2023-02-19T15:39:43;92888.53;;;17.61
28305;BMP280;15569;42.652;23.040;2023-02-19T15:42:15;92896.00;;;17.56
28305;BMP280;15569;42.652;23.040;2023-02-19T15:50:19;92905.34;;;17.43
28305;BMP280;15569;42.652;23.040;2023-02-19T15:53:02;92912.81;;;17.41
28305;BMP280;15569;42.652;23.040;2023-02-19T15:58:20;92911.00;;;17.20
28305;BMP280;15569;42.652;23.040;2023-02-19T16:00:55;92916.88;;;17.08
28305;BMP280;15569;42.652;23.040;2023-02-19T16:03:24;92910.56;;;17.01
28305;BMP280;15569;42.652;23.040;2023-02-19T16:06:06;92919.72;;;16.82
28305;BMP280;15569;42.652;23.040;2023-02-19T16:08:33;92916.69;;;16.72
28305;BMP280;15569;42.652;23.040;2023-02-19T16:11:01;92920.31;;;16.79
28305;BMP280;15569;42.652;23.040;2023-02-19T16:13:29;92915.25;;;16.69
28305;BMP280;15569;42.652;23.040;2023-02-19T16:16:09;92923.22;;;16.57
28305;BMP280;15569;42.652;23.040;2023-02-19T16:18:45;92904.06;;;16.08
28305;BMP280;15569;42.652;23.040;2023-02-19T16:21:14;92915.09;;;15.86
28305;BMP280;15569;42.652;23.040;2023-02-19T16:23:46;92923.69;;;15.75
28305;BMP280;15569;42.652;23.040;2023-02-19T16:26:12;92929.25;;;15.55
28305;BMP280;15569;42.652;23.040;2023-02-19T16:28:39;92927.72;;;15.26
28305;BMP280;15569;42.652;23.040;2023-02-19T16:31:12;92935.06;;;15.20
28305;BMP280;15569;42.652;23.040;2023-02-19T16:33:44;92934.13;;;14.92
28305;BMP280;15569;42.652;23.040;2023-02-19T16:36:34;92930.78;;;14.74